sensor_id;sensor_type;location;lat;lon;timestamp;pressure;altitude;pressure_sealevel;temperature;humidity
28181;BME280;15464;50.988;10.318;2022-11-21T11:12:58;97819.94;;;2.27;100.00
28181;BME280;15464;50.988;10.318;2022-11-21T11:16:15;97822.41;;;2.41;100.00
28181;BME280;15464;50.988;10.318;2022-11-21T11:18:50;97818.44;;;2.49;100.00
28181;BME280;15464;50.988;10.318;2022-11-21T11:21:21;97807.97;;;2.49;100.00
28181;BME280;15464;50.988;10.318;2022-11-21T11:23:50;97805.63;;;2.57;100.00
28181;BME280;15464;50.988;10.318;2022-11-21T11:26:26;97811.44;;;2.73;100.00
28181;BME280;15464;50.988;10.318;2022-11-21T11:29:06;97795.09;;;2.69;100.00
28181;BME280;15464;50.988;10.318;2022-11-21T11:32:22;97789.59;;;2.85;100.00
28181;BME280;15464;50.988;10.318;2022-11-21T11:34:46;97787.50;;;2.90;100.00
28181;BME280;15464;50.988;10.318;2022-11-21T11:46:26;97802.34;;;2.66;100.00
28181;BME280;15464;50.988;10.318;2022-11-21T11:49:36;97776.81;;;2.93;100.00
28181;BME280;15464;50.988;10.318;2022-11-21T11:52:31;97766.38;;;3.04;100.00
28181;BME280;15464;50.988;10.318;2022-11-21T11:55:02;97759.47;;;3.14;100.00
28181;BME280;15464;50.988;10.318;2022-11-21T11:57:34;97763.81;;;3.27;100.00
28181;BME280;15464;50.988;10.318;2022-11-21T12:00:14;97755.75;;;3.41;100.00
28181;BME280;15464;50.988;10.318;2022-11-21T12:03:07;97755.28;;;3.47;100.00
28181;BME280;15464;50.988;10.318;2022-11-21T12:05:51;97757.44;;;3.42;100.00
28181;BME280;15464;50.988;10.318;2022-11-21T12:08:25;97753.50;;;3.36;100.00
28181;BME280;15464;50.988;10.318;2022-11-21T12:11:32;97743.13;;;3.35;100.00
28181;BME280;15464;50.988;10.318;2022-11-21T12:17:36;97732.53;;;3.47;100.00
28181;BME280;15464;50.988;10.318;2022-11-21T12:20:13;97723.59;;;3.50;100.00
28181;BME280;15464;50.988;10.318;2022-11-21T12:22:41;97723.84;;;3.47;100.00
28181;BME280;15464;50.988;10.318;2022-11-21T12:25:11;97719.53;;;3.35;100.00
28181;BME280;15464;50.988;10.318;2022-11-21T12:27:40;97713.34;;;3.47;100.00
28181;BME280;15464;50.988;10.318;2022-11-21T12:33:22;97711.94;;;3.65;100.00
28181;BME280;15464;50.988;10.318;2022-11-21T12:50:33;97695.50;;;3.96;100.00
28181;BME280;15464;50.988;10.318;2022-11-21T12:53:27;97679.84;;;4.06;100.00
28181;BME280;15464;50.988;10.318;2022-11-21T12:56:25;97681.88;;;4.14;100.00
28181;BME280;15464;50.988;10.318;2022-11-21T12:58:54;97672.81;;;4.18;100.00
28181;BME280;15464;50.988;10.318;2022-11-21T13:04:28;97672.47;;;4.11;100.00
28181;BME280;15464;50.988;10.318;2022-11-21T13:06:56;97666.84;;;4.16;100.00
28181;BME280;15464;50.988;10.318;2022-11-21T13:09:25;97661.81;;;4.24;100.00
28181;BME280;15464;50.988;10.318;2022-11-21T13:12:02;97662.41;;;4.27;100.00
28181;BME280;15464;50.988;10.318;2022-11-21T13:17:52;97646.50;;;4.40;100.00
28181;BME280;15464;50.988;10.318;2022-11-21T13:20:32;97650.56;;;4.33;100.00
28181;BME280;15464;50.988;10.318;2022-11-21T13:23:01;97654.25;;;4.73;100.00
28181;BME280;15464;50.988;10.318;2022-11-21T13:25:35;97640.59;;;5.00;100.00
28181;BME280;15464;50.988;10.318;2022-11-21T13:30:54;97627.53;;;5.10;99.27
28181;BME280;15464;50.988;10.318;2022-11-21T13:51:57;97644.63;;;4.83;97.28
28181;BME280;15464;50.988;10.318;2022-11-21T14:08:41;97645.59;;;4.30;96.65
28181;BME280;15464;50.988;10.318;2022-11-21T14:11:20;97645.81;;;4.27;97.28
28181;BME280;15464;50.988;10.318;2022-11-21T14:13:48;97645.09;;;4.25;97.35
28181;BME280;15464;50.988;10.318;2022-11-21T14:16:34;97645.66;;;3.96;96.92
28181;BME280;15464;50.988;10.318;2022-11-21T14:19:02;97646.25;;;3.89;98.15
28181;BME280;15464;50.988;10.318;2022-11-21T14:21:31;97649.72;;;3.78;98.22
28181;BME280;15464;50.988;10.318;2022-11-21T14:24:01;97654.50;;;3.84;98.31
28181;BME280;15464;50.988;10.318;2022-11-21T14:26:38;97656.88;;;3.76;98.14
28181;BME280;15464;50.988;10.318;2022-11-21T14:29:19;97651.91;;;3.62;99.05
28181;BME280;15464;50.988;10.318;2022-11-21T14:31:49;97650.66;;;3.44;99.33
28181;BME280;15464;50.988;10.318;2022-11-21T14:34:26;97645.22;;;3.47;98.73
28181;BME280;15464;50.988;10.318;2022-11-21T14:37:03;97650.66;;;3.44;99.25
28181;BME280;15464;50.988;10.318;2022-11-21T14:39:32;97644.47;;;3.34;100.00
28181;BME280;15464;50.988;10.318;2022-11-21T14:42:05;97644.13;;;3.27;99.67
28181;BME280;15464;50.988;10.318;2022-11-21T14:44:36;97644.47;;;3.11;99.75
28181;BME280;15464;50.988;10.318;2022-11-21T14:47:17;97640.28;;;3.09;100.00
28181;BME280;15464;50.988;10.318;2022-11-21T14:49:53;97634.78;;;3.01;100.00
28181;BME280;15464;50.988;10.318;2022-11-21T14:52:26;97631.09;;;2.92;100.00
28181;BME280;15464;50.988;10.318;2022-11-21T14:54:58;97627.75;;;2.90;100.00
28181;BME280;15464;50.988;10.318;2022-11-21T14:57:46;97634.13;;;2.75;100.00
28181;BME280;15464;50.988;10.318;2022-11-21T15:00:19;97616.25;;;2.69;100.00
28181;BME280;15464;50.988;10.318;2022-11-21T15:03:18;97614.91;;;2.52;100.00
28181;BME280;15464;50.988;10.318;2022-11-21T15:05:47;97612.28;;;2.52;100.00
28181;BME280;15464;50.988;10.318;2022-11-21T15:08:32;97604.44;;;2.52;100.00
28181;BME280;15464;50.988;10.318;2022-11-21T15:11:20;97604.09;;;2.57;100.00
28181;BME280;15464;50.988;10.318;2022-11-21T15:13:53;97591.91;;;2.44;100.00
28181;BME280;15464;50.988;10.318;2022-11-21T15:16:46;97587.72;;;2.31;100.00
28181;BME280;15464;50.988;10.318;2022-11-21T15:19:24;97575.59;;;2.30;100.00
28181;BME280;15464;50.988;10.318;2022-11-21T15:21:54;97576.72;;;2.15;100.00
28181;BME280;15464;50.988;10.318;2022-11-21T15:24:39;97572.03;;;2.07;100.00
28181;BME280;15464;50.988;10.318;2022-11-21T15:35:49;97574.38;;;1.99;100.00
28181;BME280;15464;50.988;10.318;2022-11-21T15:38:32;97572.03;;;2.07;100.00
28181;BME280;15464;50.988;10.318;2022-11-21T15:43:36;97569.81;;;2.14;100.00
28181;BME280;15464;50.988;10.318;2022-11-21T15:46:12;97564.81;;;2.11;100.00
28181;BME280;15464;50.988;10.318;2022-11-21T15:48:40;97553.41;;;2.12;100.00
28181;BME280;15464;50.988;10.318;2022-11-21T15:51:10;97554.47;;;2.09;100.00
28181;BME280;15464;50.988;10.318;2022-11-21T15:53:38;97539.34;;;2.13;100.00
28181;BME280;15464;50.988;10.318;2022-11-21T15:56:05;97553.41;;;2.12;100.00
28181;BME280;15464;50.988;10.318;2022-11-21T15:58:32;97552.41;;;2.01;100.00
28181;BME280;15464;50.988;10.318;2022-11-21T16:00:58;97558.25;;;2.05;100.00
28181;BME280;15464;50.988;10.318;2022-11-21T16:03:25;97551.84;;;2.09;100.00
28181;BME280;15464;50.988;10.318;2022-11-21T16:05:52;97548.25;;;1.99;100.00
28181;BME280;15464;50.988;10.318;2022-11-21T16:08:19;97550.13;;;1.97;100.00
28181;BME280;15464;50.988;10.318;2022-11-21T16:10:46;97552.84;;;1.95;100.00
28181;BME280;15464;50.988;10.318;2022-11-21T16:13:12;97547.97;;;1.91;100.00
28181;BME280;15464;50.988;10.318;2022-11-21T16:15:39;97552.34;;;1.90;100.00
28181;BME280;15464;50.988;10.318;2022-11-21T16:18:07;97553.91;;;1.93;100.00
28181;BME280;15464;50.988;10.318;2022-11-21T16:20:33;97554.69;;;1.82;100.00
28181;BME280;15464;50.988;10.318;2022-11-21T16:23:00;97547.47;;;1.86;100.00
28181;BME280;15464;50.988;10.318;2022-11-21T16:25:27;97542.00;;;1.89;100.00
28181;BME280;15464;50.988;10.318;2022-11-21T16:27:55;97534.88;;;1.91;100.00
28181;BME280;15464;50.988;10.318;2022-11-21T16:30:22;97533.47;;;1.87;100.00
28181;BME280;15464;50.988;10.318;2022-11-21T16:32:48;97532.44;;;1.77;100.00
28181;BME280;15464;50.988;10.318;2022-11-21T16:35:16;97531.22;;;1.70;100.00
28181;BME280;15464;50.988;10.318;2022-11-21T16:37:43;97531.16;;;1.58;100.00
28181;BME280;15464;50.988;10.318;2022-11-21T16:40:09;97523.94;;;1.62;100.00
28181;BME280;15464;50.988;10.318;2022-11-21T16:42:36;97512.66;;;1.61;100.00
28181;BME280;15464;50.988;10.318;2022-11-21T16:45:03;97508.56;;;1.57;100.00
28181;BME280;15464;50.988;10.318;2022-11-21T16:47:30;97501.63;;;1.45;100.00
28181;BME280;15464;50.988;10.318;2022-11-21T16:49:57;97497.66;;;1.40;100.00
28181;BME280;15464;50.988;10.318;2022-11-21T16:52:23;97491.16;;;1.45;100.00
28181;BME280;15464;50.988;10.318;2022-11-21T16:54:51;97480.03;;;1.43;100.00
28181;BME280;15464;50.988;10.318;2022-11-21T16:57:18;97475.16;;;1.26;100.00
28181;BME280;15464;50.988;10.318;2022-11-21T16:59:44;97467.00;;;1.31;100.00
28181;BME280;15464;50.988;10.318;2022-11-21T17:02:12;97467.59;;;1.34;100.00
28181;BME280;15464;50.988;10.318;2022-11-21T17:04:39;97463.81;;;1.38;100.00
28181;BME280;15464;50.988;10.318;2022-11-21T17:07:05;97457.66;;;1.39;100.00
